createdAt,value
2023-09-07T00:01:35.346Z,5.00
2023-09-07T00:04:04.097Z,5.20
2023-09-07T00:06:30.881Z,4.75
2023-09-07T00:08:57.341Z,5.15
2023-09-07T00:11:24.280Z,4.90
2023-09-07T00:13:51.982Z,4.68
2023-09-07T00:16:19.417Z,4.18
2023-09-07T00:18:46.327Z,4.88
2023-09-07T00:21:12.851Z,5.07
2023-09-07T00:23:41.201Z,5.00
2023-09-07T00:26:07.913Z,4.95
2023-09-07T00:28:34.889Z,4.82
2023-09-07T00:31:02.070Z,4.57
2023-09-07T00:33:28.620Z,5.00
2023-09-07T00:35:55.278Z,5.13
2023-09-07T00:38:21.858Z,4.72
2023-09-07T00:40:48.520Z,4.90
2023-09-07T00:43:16.209Z,5.22
2023-09-07T00:45:43.152Z,5.40
2023-09-07T00:48:10.423Z,5.93
2023-09-07T00:50:37.136Z,4.97
2023-09-07T00:53:04.472Z,4.97
2023-09-07T00:55:34.236Z,5.22
2023-09-07T00:58:05.158Z,5.65
2023-09-07T01:00:32.880Z,5.20
2023-09-07T01:02:59.518Z,5.32
2023-09-07T01:05:35.315Z,5.30
2023-09-07T01:08:13.132Z,5.28
2023-09-07T01:10:40.032Z,4.40
2023-09-07T01:13:06.967Z,4.82
2023-09-07T01:15:33.957Z,5.18
2023-09-07T01:18:13.836Z,4.97
2023-09-07T01:20:49.754Z,4.82
2023-09-07T01:23:16.739Z,5.32
2023-09-07T01:25:44.749Z,4.90
2023-09-07T01:28:11.504Z,4.90
2023-09-07T01:30:41.518Z,4.55
2023-09-07T01:33:09.809Z,5.25
2023-09-07T01:35:37.765Z,4.93
2023-09-07T01:38:04.549Z,5.32
2023-09-07T01:40:31.130Z,4.60
2023-09-07T01:42:57.678Z,4.95
2023-09-07T01:45:25.018Z,5.13
2023-09-07T01:47:53.199Z,5.28
2023-09-07T01:50:19.963Z,5.07
2023-09-07T01:52:52.190Z,4.80
2023-09-07T01:55:18.905Z,5.35
2023-09-07T01:57:45.804Z,5.28
2023-09-07T02:00:13.596Z,5.20
2023-09-07T02:02:40.196Z,5.82
2023-09-07T02:05:07.017Z,5.40
2023-09-07T02:07:34.432Z,5.13
2023-09-07T02:10:04.405Z,5.10
2023-09-07T02:12:30.975Z,4.80
2023-09-07T02:14:57.439Z,5.28
2023-09-07T02:17:24.113Z,5.85
2023-09-07T02:19:51.696Z,5.20
2023-09-07T02:22:18.196Z,5.22
2023-09-07T02:24:44.666Z,5.32
2023-09-07T02:27:11.291Z,5.90
2023-09-07T02:29:38.192Z,5.90
2023-09-07T02:32:04.987Z,5.28
2023-09-07T02:34:32.019Z,5.40
2023-09-07T02:36:58.607Z,5.00
2023-09-07T02:39:27.769Z,5.20
2023-09-07T02:41:54.300Z,5.32
2023-09-07T02:44:21.278Z,5.10
2023-09-07T02:46:48.269Z,4.88
2023-09-07T02:49:14.926Z,6.00
2023-09-07T02:51:41.707Z,5.50
2023-09-07T02:54:08.241Z,5.78
2023-09-07T02:56:34.964Z,5.50
2023-09-07T02:59:01.453Z,5.15
2023-09-07T03:01:28.181Z,5.10
2023-09-07T03:03:54.819Z,5.28
2023-09-07T03:06:21.452Z,5.68
2023-09-07T03:08:47.975Z,5.80
2023-09-07T03:11:14.574Z,5.53
2023-09-07T03:13:41.203Z,5.07
2023-09-07T03:16:07.882Z,5.03
2023-09-07T03:18:34.488Z,5.55
2023-09-07T03:21:03.617Z,5.78
2023-09-07T03:23:31.801Z,5.43
2023-09-07T03:25:59.272Z,5.47
2023-09-07T03:28:26.937Z,5.35
2023-09-07T03:30:54.944Z,5.68
2023-09-07T03:33:21.744Z,5.22
2023-09-07T03:35:48.609Z,6.15
2023-09-07T03:38:15.354Z,5.30
2023-09-07T03:40:42.006Z,5.45
2023-09-07T03:43:08.584Z,5.53
2023-09-07T03:45:35.130Z,5.25
2023-09-07T03:48:01.827Z,5.20
2023-09-07T03:50:28.894Z,5.07
2023-09-07T03:52:55.443Z,5.28
2023-09-07T03:55:23.211Z,5.45
2023-09-07T03:57:50.103Z,5.80
2023-09-07T04:00:17.062Z,5.30
2023-09-07T04:02:44.476Z,5.38
2023-09-07T04:05:12.053Z,5.07
2023-09-07T04:07:39.229Z,6.03
2023-09-07T04:10:08.462Z,5.78
2023-09-07T04:12:34.913Z,4.97
2023-09-07T04:15:05.430Z,5.32
2023-09-07T04:17:37.049Z,5.75
2023-09-07T04:20:04.713Z,5.22
2023-09-07T04:22:31.862Z,4.88
2023-09-07T04:24:58.435Z,5.55
2023-09-07T04:27:24.913Z,5.50
2023-09-07T04:29:51.439Z,5.75
2023-09-07T04:32:17.990Z,7.03
2023-09-07T04:34:44.522Z,5.72
2023-09-07T04:37:13.158Z,5.80
2023-09-07T04:39:41.259Z,5.55
2023-09-07T04:42:07.808Z,5.38
2023-09-07T04:44:34.931Z,5.28
2023-09-07T04:47:01.530Z,5.60
2023-09-07T04:49:28.173Z,5.47
2023-09-07T04:51:55.725Z,5.68
2023-09-07T04:54:22.229Z,5.90
2023-09-07T04:56:49.126Z,5.95
2023-09-07T04:59:16.327Z,5.80
2023-09-07T05:01:43.997Z,5.72
2023-09-07T05:04:11.111Z,6.00
2023-09-07T05:06:39.713Z,6.03
2023-09-07T05:09:06.256Z,6.47
2023-09-07T05:11:35.937Z,6.13
2023-09-07T05:14:03.911Z,6.07
2023-09-07T05:16:30.615Z,7.05
2023-09-07T05:18:57.242Z,6.07
2023-09-07T05:21:23.907Z,6.68
2023-09-07T05:23:50.574Z,7.07
2023-09-07T05:26:22.786Z,6.97
2023-09-07T05:28:49.866Z,6.10
2023-09-07T05:31:16.481Z,6.63
2023-09-07T05:33:43.242Z,6.22
2023-09-07T05:36:10.018Z,5.57
2023-09-07T05:38:36.846Z,6.45
2023-09-07T05:41:03.749Z,6.03
2023-09-07T05:43:30.471Z,6.22
2023-09-07T05:45:57.040Z,6.10
2023-09-07T05:48:23.581Z,6.70
2023-09-07T05:50:50.210Z,6.32
2023-09-07T05:53:16.734Z,7.78
2023-09-07T05:55:43.485Z,6.68
2023-09-07T05:58:10.077Z,6.43
2023-09-07T06:00:38.466Z,6.82
2023-09-07T06:03:06.242Z,7.28
2023-09-07T06:05:34.574Z,7.53
2023-09-07T06:08:01.054Z,7.70
2023-09-07T06:10:30.312Z,6.75
2023-09-07T06:12:57.611Z,6.65
2023-09-07T06:15:24.153Z,6.65
2023-09-07T06:17:51.017Z,6.90
2023-09-07T06:20:20.938Z,6.10
2023-09-07T06:22:49.441Z,6.68
2023-09-07T06:25:16.015Z,6.88
2023-09-07T06:27:42.507Z,6.20
2023-09-07T06:30:09.778Z,6.03
2023-09-07T06:32:36.447Z,6.07
2023-09-07T06:35:03.553Z,5.95
2023-09-07T06:37:31.212Z,6.35
2023-09-07T06:39:57.892Z,6.18
2023-09-07T06:42:24.480Z,5.75
2023-09-07T06:44:52.858Z,7.50
2023-09-07T06:47:20.617Z,6.05
2023-09-07T06:49:47.142Z,5.63
2023-09-07T06:52:14.492Z,6.07
2023-09-07T06:54:41.071Z,5.75
2023-09-07T06:57:09.814Z,6.55
2023-09-07T06:59:36.799Z,5.80
2023-09-07T07:02:06.301Z,5.72
2023-09-07T07:04:33.060Z,6.15
2023-09-07T07:07:02.085Z,5.72
2023-09-07T07:09:29.131Z,6.72
2023-09-07T07:11:55.940Z,6.15
2023-09-07T07:14:22.466Z,6.18
2023-09-07T07:16:49.254Z,5.95
2023-09-07T07:19:15.924Z,5.93
2023-09-07T07:21:42.937Z,6.00
2023-09-07T07:24:10.087Z,5.95
2023-09-07T07:26:36.731Z,6.13
2023-09-07T07:29:06.968Z,6.10
2023-09-07T07:31:33.592Z,5.88
2023-09-07T07:34:00.152Z,5.97
2023-09-07T07:36:26.978Z,5.35
2023-09-07T07:38:53.541Z,5.47
2023-09-07T07:41:20.125Z,6.05
2023-09-07T07:43:46.688Z,5.38
2023-09-07T07:46:16.826Z,5.55
2023-09-07T07:48:43.519Z,6.18
2023-09-07T07:51:12.153Z,5.18
2023-09-07T07:53:39.232Z,5.45
2023-09-07T07:56:07.411Z,5.70
2023-09-07T07:58:34.863Z,5.35
2023-09-07T08:01:03.221Z,5.57
2023-09-07T08:03:30.917Z,5.35
2023-09-07T08:05:58.677Z,6.00
2023-09-07T08:08:26.234Z,5.60
2023-09-07T08:10:53.531Z,5.43
2023-09-07T08:13:21.397Z,5.60
2023-09-07T08:15:49.528Z,5.45
2023-09-07T08:18:16.886Z,4.88
2023-09-07T08:20:44.309Z,5.32
2023-09-07T08:23:14.597Z,5.20
2023-09-07T08:25:46.399Z,5.18
2023-09-07T08:28:13.673Z,5.50
2023-09-07T08:30:40.838Z,4.68
2023-09-07T08:33:08.602Z,4.65
2023-09-07T08:35:36.945Z,4.70
2023-09-07T08:38:07.028Z,4.38
2023-09-07T08:40:36.422Z,4.75
2023-09-07T08:43:06.112Z,4.55
2023-09-07T08:45:41.909Z,4.93
2023-09-07T08:48:10.731Z,4.75
2023-09-07T08:50:43.340Z,5.00
2023-09-07T08:55:37.979Z,4.43
2023-09-07T08:58:05.525Z,4.38
2023-09-07T09:00:32.812Z,4.00
2023-09-07T09:03:00.952Z,4.00
2023-09-07T09:05:30.250Z,4.50
2023-09-07T09:08:09.738Z,3.80
2023-09-07T09:10:41.196Z,3.78
2023-09-07T09:13:08.472Z,3.78
2023-09-07T09:15:35.712Z,4.10
2023-09-07T09:18:13.372Z,3.95
2023-09-07T09:20:41.120Z,4.07
2023-09-07T09:23:08.844Z,3.90
2023-09-07T09:25:36.101Z,3.90
2023-09-07T09:28:03.900Z,3.75
2023-09-07T09:30:31.497Z,4.10
2023-09-07T09:33:00.488Z,3.80
2023-09-07T09:35:29.131Z,3.60
2023-09-07T09:37:55.661Z,3.72
2023-09-07T09:40:23.302Z,3.40
2023-09-07T09:42:53.164Z,3.45
2023-09-07T09:45:21.158Z,4.03
2023-09-07T09:47:49.463Z,3.78
2023-09-07T09:50:18.090Z,3.30
2023-09-07T09:52:46.557Z,3.65
2023-09-07T09:55:14.502Z,3.35
2023-09-07T09:57:41.269Z,3.30
2023-09-07T10:00:18.613Z,3.20
2023-09-07T10:02:49.277Z,3.33
2023-09-07T10:05:17.846Z,3.60
2023-09-07T10:07:46.519Z,3.13
2023-09-07T10:10:17.130Z,3.08
2023-09-07T10:12:44.872Z,3.17
2023-09-07T10:15:24.192Z,3.17
2023-09-07T10:17:51.430Z,2.92
2023-09-07T10:20:19.316Z,3.22
2023-09-07T10:22:46.746Z,3.60
2023-09-07T10:25:23.744Z,3.30
2023-09-07T10:27:51.139Z,3.28
2023-09-07T10:30:20.662Z,3.33
2023-09-07T10:32:47.659Z,3.45
2023-09-07T10:35:19.341Z,3.40
2023-09-07T10:37:49.841Z,3.50
2023-09-07T10:40:23.210Z,3.20
2023-09-07T10:42:50.022Z,3.28
2023-09-07T10:45:18.105Z,3.30
2023-09-07T10:47:45.253Z,3.40
2023-09-07T10:50:15.270Z,3.20
2023-09-07T10:52:42.659Z,2.95
2023-09-07T10:55:13.597Z,2.88
2023-09-07T10:57:46.168Z,3.60
2023-09-07T11:00:15.047Z,3.45
2023-09-07T11:02:46.313Z,2.70
2023-09-07T11:05:13.451Z,3.03
2023-09-07T11:07:41.917Z,2.30
2023-09-07T11:10:09.111Z,2.55
2023-09-07T11:12:39.875Z,2.80
2023-09-07T11:15:10.081Z,2.60
2023-09-07T11:17:42.528Z,2.60
2023-09-07T11:20:10.712Z,3.15
2023-09-07T11:22:48.805Z,3.05
2023-09-07T11:25:22.404Z,3.45
2023-09-07T11:27:49.045Z,3.35
2023-09-07T11:30:15.718Z,3.38
2023-09-07T11:32:46.752Z,3.25
2023-09-07T11:35:13.308Z,3.58
2023-09-07T11:37:41.538Z,3.42
2023-09-07T11:40:13.210Z,3.10
2023-09-07T11:42:40.185Z,3.55
2023-09-07T11:45:08.569Z,3.60
2023-09-07T11:47:36.019Z,3.45
2023-09-07T11:50:02.548Z,3.22
2023-09-07T11:52:32.143Z,3.60
2023-09-07T11:54:59.136Z,3.42
2023-09-07T11:57:26.012Z,3.55
2023-09-07T11:59:58.832Z,3.53
2023-09-07T12:02:26.001Z,3.47
2023-09-07T12:04:52.966Z,3.88
2023-09-07T12:07:19.527Z,3.67
2023-09-07T12:09:46.130Z,3.35
2023-09-07T12:12:12.874Z,3.40
2023-09-07T12:14:39.566Z,3.47
2023-09-07T12:17:06.375Z,2.92
2023-09-07T12:19:33.118Z,3.65
2023-09-07T12:21:59.680Z,3.60
2023-09-07T12:24:26.259Z,3.50
2023-09-07T12:26:55.077Z,3.47
2023-09-07T12:29:21.869Z,3.70
2023-09-07T12:31:48.513Z,3.40
2023-09-07T12:34:15.531Z,3.95
2023-09-07T12:36:42.249Z,3.10
2023-09-07T12:39:09.011Z,2.97
2023-09-07T12:41:35.554Z,3.90
2023-09-07T12:44:02.092Z,3.70
2023-09-07T12:46:28.783Z,3.60
2023-09-07T12:48:55.441Z,3.47
2023-09-07T12:51:23.962Z,3.45
2023-09-07T12:53:50.598Z,3.50
2023-09-07T12:56:19.133Z,3.45
2023-09-07T12:58:45.944Z,3.30
2023-09-07T13:01:16.457Z,3.38
2023-09-07T13:03:43.254Z,3.50
2023-09-07T13:06:10.010Z,3.60
2023-09-07T13:08:37.005Z,3.10
2023-09-07T13:11:03.869Z,3.42
2023-09-07T13:13:30.820Z,3.28
2023-09-07T13:15:57.795Z,3.30
2023-09-07T13:18:24.457Z,3.35
2023-09-07T13:20:52.893Z,3.35
2023-09-07T13:23:19.417Z,3.40
2023-09-07T13:25:45.965Z,3.25
2023-09-07T13:28:12.917Z,3.08
2023-09-07T13:30:41.327Z,3.50
2023-09-07T13:33:09.131Z,2.92
2023-09-07T13:35:35.738Z,3.22
2023-09-07T13:38:02.493Z,3.22
2023-09-07T13:40:30.654Z,3.15
2023-09-07T13:42:57.987Z,3.25
2023-09-07T13:45:24.654Z,2.90
2023-09-07T13:47:51.252Z,3.10
2023-09-07T13:50:17.985Z,3.80
2023-09-07T13:52:45.108Z,3.20
2023-09-07T13:55:11.609Z,3.63
2023-09-07T13:57:38.192Z,4.07
2023-09-07T14:00:07.079Z,3.20
2023-09-07T14:02:34.001Z,3.63
2023-09-07T14:05:00.609Z,3.10
2023-09-07T14:07:27.192Z,3.35
2023-09-07T14:09:55.294Z,3.80
2023-09-07T14:12:22.950Z,3.72
2023-09-07T14:14:50.513Z,3.50
2023-09-07T14:17:17.543Z,3.50
2023-09-07T14:19:44.176Z,3.30
2023-09-07T14:22:10.724Z,3.58
2023-09-07T14:24:38.442Z,3.53
2023-09-07T14:27:05.362Z,3.20
2023-09-07T14:29:31.908Z,3.60
2023-09-07T14:31:58.461Z,2.90
2023-09-07T14:34:25.001Z,3.42
2023-09-07T14:36:52.617Z,3.25
2023-09-07T14:39:24.571Z,4.28
2023-09-07T14:41:55.303Z,3.30
2023-09-07T14:44:22.781Z,3.20
2023-09-07T14:46:51.250Z,3.80
2023-09-07T14:49:22.195Z,3.28
2023-09-07T14:51:48.782Z,3.33
2023-09-07T14:54:19.107Z,2.90
2023-09-07T14:56:45.671Z,3.50
2023-09-07T14:59:12.177Z,2.92
2023-09-07T15:01:39.403Z,3.60
2023-09-07T15:04:06.248Z,3.50
2023-09-07T15:06:34.760Z,3.25
2023-09-07T15:09:01.402Z,3.25
2023-09-07T15:11:28.111Z,3.45
2023-09-07T15:13:56.380Z,3.05
2023-09-07T15:16:24.496Z,3.53
2023-09-07T15:18:52.755Z,3.50
2023-09-07T15:21:25.428Z,3.38
2023-09-07T15:23:52.036Z,3.40
2023-09-07T15:26:19.148Z,3.65
2023-09-07T15:28:45.819Z,3.45
2023-09-07T15:31:12.394Z,3.78
2023-09-07T15:33:39.046Z,3.70
2023-09-07T15:36:05.807Z,3.35
2023-09-07T15:38:33.044Z,3.70
2023-09-07T15:40:59.919Z,3.80
2023-09-07T15:43:26.499Z,3.53
2023-09-07T15:45:54.708Z,3.80
2023-09-07T15:48:21.597Z,3.63
2023-09-07T15:50:48.703Z,3.20
2023-09-07T15:53:15.354Z,3.60
2023-09-07T15:55:44.592Z,3.50
2023-09-07T15:58:11.647Z,3.30
2023-09-07T16:00:39.067Z,3.30
2023-09-07T16:03:06.458Z,3.22
2023-09-07T16:05:33.100Z,3.75
2023-09-07T16:07:59.688Z,5.05
2023-09-07T16:10:28.639Z,3.90
2023-09-07T16:12:56.604Z,3.80
2023-09-07T16:15:23.377Z,3.60
2023-09-07T16:17:49.929Z,3.45
2023-09-07T16:20:16.936Z,3.72
2023-09-07T16:22:43.628Z,3.40
2023-09-07T16:25:10.341Z,3.60
2023-09-07T16:27:41.820Z,3.58
2023-09-07T16:30:09.758Z,3.75
2023-09-07T16:32:38.948Z,4.18
2023-09-07T16:35:06.566Z,3.22
2023-09-07T16:37:33.184Z,3.83
2023-09-07T16:40:00.203Z,3.50
2023-09-07T16:42:27.814Z,4.20
2023-09-07T16:44:54.610Z,4.70
2023-09-07T16:47:21.875Z,3.67
2023-09-07T16:49:48.559Z,3.90
2023-09-07T16:52:15.762Z,3.50
2023-09-07T16:54:42.377Z,3.60
2023-09-07T16:57:09.732Z,4.22
2023-09-07T17:02:06.737Z,3.72
2023-09-07T17:04:36.696Z,3.50
2023-09-07T17:07:09.188Z,3.42
2023-09-07T17:09:37.764Z,4.10
2023-09-07T17:12:06.651Z,3.53
2023-09-07T17:14:33.334Z,3.50
2023-09-07T17:17:00.581Z,3.53
2023-09-07T17:19:30.297Z,4.47
2023-09-07T17:21:56.848Z,3.83
2023-09-07T17:24:23.896Z,3.75
2023-09-07T17:26:50.596Z,3.92
2023-09-07T17:29:19.054Z,3.97
2023-09-07T17:31:45.669Z,3.90
2023-09-07T17:34:12.951Z,4.57
2023-09-07T17:36:39.741Z,4.20
2023-09-07T17:39:07.195Z,4.50
2023-09-07T17:41:35.979Z,13.25
2023-09-07T17:44:03.057Z,4.05
2023-09-07T17:46:31.285Z,4.15
2023-09-07T17:48:58.264Z,4.30
2023-09-07T17:51:25.484Z,4.18
2023-09-07T17:53:52.084Z,4.60
2023-09-07T17:56:18.685Z,4.28
2023-09-07T17:58:46.493Z,5.10
2023-09-07T18:01:16.762Z,4.80
2023-09-07T18:03:43.973Z,5.78
2023-09-07T18:06:11.428Z,4.28
2023-09-07T18:08:38.642Z,4.80
2023-09-07T18:11:06.736Z,5.57
2023-09-07T18:13:33.333Z,4.88
2023-09-07T18:16:00.781Z,4.72
2023-09-07T18:18:27.812Z,5.07
2023-09-07T18:20:54.449Z,5.28
2023-09-07T18:23:21.165Z,4.55
2023-09-07T18:25:47.902Z,4.80
2023-09-07T18:28:15.067Z,5.00
2023-09-07T18:30:42.580Z,5.40
2023-09-07T18:33:10.332Z,6.53
2023-09-07T18:35:36.972Z,8.02
2023-09-07T18:38:03.593Z,7.13
2023-09-07T18:40:30.057Z,5.90
2023-09-07T18:42:59.980Z,5.57
2023-09-07T18:45:29.936Z,5.72
2023-09-07T18:47:56.552Z,4.95
2023-09-07T18:50:25.024Z,4.95
2023-09-07T18:52:52.190Z,4.97
2023-09-07T18:55:19.680Z,5.15
2023-09-07T18:57:48.350Z,4.25
2023-09-07T19:00:16.947Z,4.70
2023-09-07T19:02:44.362Z,4.68
2023-09-07T19:05:11.515Z,4.85
2023-09-07T19:07:40.316Z,5.30
2023-09-07T19:10:08.461Z,5.43
2023-09-07T19:12:36.416Z,4.75
2023-09-07T19:15:03.991Z,4.65
2023-09-07T19:17:30.609Z,4.88
2023-09-07T19:19:58.257Z,4.88
2023-09-07T19:22:25.046Z,5.10
2023-09-07T19:24:51.564Z,5.68
2023-09-07T19:27:18.233Z,6.22
2023-09-07T19:29:47.477Z,7.10
2023-09-07T19:32:19.377Z,6.20
2023-09-07T19:34:46.935Z,6.28
2023-09-07T19:37:13.875Z,5.97
2023-09-07T19:39:41.719Z,7.20
2023-09-07T19:42:08.498Z,6.07
2023-09-07T19:44:35.705Z,7.07
2023-09-07T19:47:03.333Z,6.10
2023-09-07T19:49:30.111Z,7.22
2023-09-07T19:51:56.652Z,6.40
2023-09-07T19:54:23.258Z,7.35
2023-09-07T19:56:49.914Z,6.55
2023-09-07T19:59:17.425Z,5.43
2023-09-07T20:01:57.230Z,5.18
2023-09-07T20:04:25.749Z,4.95
2023-09-07T20:06:53.266Z,5.18
2023-09-07T20:09:21.768Z,4.93
2023-09-07T20:11:49.141Z,4.90
2023-09-07T20:14:16.406Z,5.55
2023-09-07T20:16:44.697Z,5.10
2023-09-07T20:19:15.298Z,5.30
2023-09-07T20:21:42.097Z,5.65
2023-09-07T20:24:09.842Z,5.53
2023-09-07T20:26:37.071Z,6.03
2023-09-07T20:29:07.757Z,5.28
2023-09-07T20:31:34.454Z,5.10
2023-09-07T20:34:01.320Z,5.82
2023-09-07T20:36:27.902Z,7.55
2023-09-07T20:38:56.212Z,4.95
2023-09-07T20:41:23.580Z,5.15
2023-09-07T20:43:50.384Z,5.68
2023-09-07T20:46:17.865Z,5.05
2023-09-07T20:48:44.843Z,5.13
2023-09-07T20:51:11.688Z,5.22
2023-09-07T20:53:38.311Z,4.78
2023-09-07T20:56:05.012Z,4.50
2023-09-07T20:58:31.844Z,4.88
2023-09-07T21:00:58.760Z,4.70
2023-09-07T21:03:25.552Z,5.18
2023-09-07T21:05:52.731Z,5.05
2023-09-07T21:08:19.972Z,4.80
2023-09-07T21:10:47.354Z,4.63
2023-09-07T21:13:14.449Z,4.53
2023-09-07T21:15:41.346Z,4.45
2023-09-07T21:18:08.229Z,4.95
2023-09-07T21:20:36.422Z,4.72
2023-09-07T21:23:04.310Z,4.65
2023-09-07T21:25:31.288Z,4.88
2023-09-07T21:27:58.596Z,4.90
2023-09-07T21:30:25.364Z,5.10
2023-09-07T21:32:51.978Z,4.68
2023-09-07T21:35:18.877Z,4.75
2023-09-07T21:37:45.404Z,4.72
2023-09-07T21:40:12.363Z,5.45
2023-09-07T21:42:38.879Z,6.28
2023-09-07T21:45:06.494Z,5.13
2023-09-07T21:47:33.108Z,5.88
2023-09-07T21:49:59.638Z,5.65
2023-09-07T21:52:27.460Z,5.32
2023-09-07T21:54:55.351Z,5.07
2023-09-07T21:57:25.022Z,4.72
2023-09-07T21:59:52.920Z,5.18
2023-09-07T22:02:19.686Z,5.07
2023-09-07T22:04:50.322Z,4.70
2023-09-07T22:07:16.955Z,5.22
2023-09-07T22:09:43.502Z,5.28
2023-09-07T22:12:09.996Z,5.03
2023-09-07T22:14:36.756Z,4.80
2023-09-07T22:17:04.589Z,5.35
2023-09-07T22:19:33.235Z,4.85
2023-09-07T22:21:59.848Z,4.88
2023-09-07T22:24:26.471Z,4.68
2023-09-07T22:26:55.275Z,4.68
2023-09-07T22:29:24.459Z,4.70
2023-09-07T22:31:51.173Z,4.90
2023-09-07T22:34:17.643Z,4.95
2023-09-07T22:36:44.343Z,4.72
2023-09-07T22:39:12.165Z,5.28
2023-09-07T22:41:38.876Z,4.72
2023-09-07T22:44:05.784Z,4.43
2023-09-07T22:46:35.498Z,5.40
2023-09-07T22:49:02.576Z,4.90
2023-09-07T22:51:29.733Z,4.70
2023-09-07T22:53:56.437Z,4.93
2023-09-07T22:56:23.260Z,6.15
2023-09-07T22:58:49.972Z,5.20
2023-09-07T23:01:17.537Z,5.38
2023-09-07T23:03:44.947Z,6.88
2023-09-07T23:06:11.797Z,5.50
2023-09-07T23:08:38.457Z,4.95
2023-09-07T23:11:05.703Z,5.15
2023-09-07T23:13:35.358Z,4.68
2023-09-07T23:16:05.308Z,4.50
2023-09-07T23:18:33.033Z,5.10
2023-09-07T23:20:59.948Z,4.72
2023-09-07T23:23:26.863Z,4.97
2023-09-07T23:25:57.072Z,5.18
2023-09-07T23:28:25.138Z,5.45
2023-09-07T23:30:52.741Z,4.63
2023-09-07T23:33:19.843Z,4.30
2023-09-07T23:35:46.515Z,4.55
2023-09-07T23:38:13.441Z,5.32
2023-09-07T23:40:40.027Z,5.15
2023-09-07T23:43:06.636Z,5.10
2023-09-07T23:45:33.926Z,5.15
2023-09-07T23:48:00.640Z,5.28
2023-09-07T23:50:27.526Z,4.80
2023-09-07T23:52:53.999Z,5.40
2023-09-07T23:55:20.557Z,5.15
2023-09-07T23:57:47.343Z,5.00
